createdAt,value
2022-10-10T00:01:24.331Z,98224.09
2022-10-10T00:03:52.833Z,98237.84
2022-10-10T00:06:22.132Z,98218.25
2022-10-10T00:08:52.270Z,98227.66
2022-10-10T00:11:23.819Z,98224.22
2022-10-10T00:13:52.495Z,98220.03
2022-10-10T00:16:20.988Z,98221.78
2022-10-10T00:18:50.024Z,98225.19
2022-10-10T00:21:18.277Z,98224.34
2022-10-10T00:23:46.690Z,98220.94
2022-10-10T00:26:19.237Z,98216.69
2022-10-10T00:28:47.768Z,98221.00
2022-10-10T00:31:15.992Z,98208.25
2022-10-10T00:33:44.384Z,98212.50
2022-10-10T00:36:12.860Z,98201.41
2022-10-10T00:38:41.072Z,98209.09
2022-10-10T00:41:10.383Z,98207.47
2022-10-10T00:43:40.780Z,98203.22
2022-10-10T00:46:09.695Z,98205.78
2022-10-10T00:48:41.154Z,98202.28
2022-10-10T00:51:11.801Z,98201.41
2022-10-10T00:53:44.256Z,98204.84
2022-10-10T00:56:15.487Z,98196.28
2022-10-10T00:58:49.808Z,98203.97
2022-10-10T01:01:18.278Z,98202.34
2022-10-10T01:03:46.670Z,98205.69
2022-10-10T01:06:15.234Z,98203.09
2022-10-10T01:08:44.378Z,98200.44
2022-10-10T01:11:30.549Z,98199.56
2022-10-10T01:14:10.094Z,98194.41
2022-10-10T01:16:51.640Z,98197.84
2022-10-10T01:19:48.859Z,98182.50
2022-10-10T01:22:28.010Z,98190.09
2022-10-10T01:25:01.540Z,98183.28
2022-10-10T01:27:36.175Z,98184.06
2022-10-10T01:30:09.258Z,98182.41
2022-10-10T01:32:44.329Z,98178.16
2022-10-10T01:35:33.252Z,98183.38
2022-10-10T01:38:21.591Z,98182.63
2022-10-10T01:40:55.191Z,98182.72
2022-10-10T01:43:26.550Z,98190.47
2022-10-10T01:45:56.263Z,98184.56
2022-10-10T01:48:29.451Z,98168.31
2022-10-10T01:51:16.758Z,98184.56
2022-10-10T01:53:51.792Z,98176.03
2022-10-10T01:56:33.722Z,98175.25
2022-10-10T01:59:17.315Z,98167.59
2022-10-10T02:01:54.104Z,98171.03
2022-10-10T02:04:31.379Z,98174.44
2022-10-10T02:07:04.745Z,98171.09
2022-10-10T02:09:39.882Z,98174.47
2022-10-10T02:12:10.956Z,98155.88
2022-10-10T02:14:43.966Z,98168.53
2022-10-10T02:17:16.627Z,98171.97
2022-10-10T02:19:48.104Z,98160.13
2022-10-10T02:22:16.680Z,98165.16
2022-10-10T02:24:45.876Z,98158.41
2022-10-10T02:27:20.094Z,98150.84
2022-10-10T02:29:50.423Z,98164.38
2022-10-10T02:32:25.453Z,98166.13
2022-10-10T02:34:57.315Z,98153.38
2022-10-10T02:37:26.829Z,98157.63
2022-10-10T02:39:59.715Z,98153.34
2022-10-10T02:42:29.224Z,98154.22
2022-10-10T02:44:59.137Z,98153.41
2022-10-10T02:47:29.132Z,98150.91
2022-10-10T02:49:57.369Z,98162.88
2022-10-10T02:52:25.996Z,98150.94
2022-10-10T02:54:54.071Z,98150.03
2022-10-10T02:57:22.256Z,98155.22
2022-10-10T02:59:50.494Z,98145.06
2022-10-10T03:02:18.726Z,98148.53
2022-10-10T03:04:48.270Z,98146.81
2022-10-10T03:07:16.621Z,98151.06
2022-10-10T03:09:44.780Z,98150.25
2022-10-10T03:12:13.182Z,98152.84
2022-10-10T03:14:41.392Z,98148.56
2022-10-10T03:17:09.538Z,98151.94
2022-10-10T03:19:37.736Z,98144.34
2022-10-10T03:22:07.270Z,98155.47
2022-10-10T03:24:35.535Z,98148.69
2022-10-10T03:27:03.627Z,98164.03
2022-10-10T03:29:31.956Z,98155.56
2022-10-10T03:32:00.095Z,98150.47
2022-10-10T03:34:28.529Z,98149.63
2022-10-10T03:36:56.793Z,98151.34
2022-10-10T03:39:27.025Z,98151.31
2022-10-10T03:41:55.135Z,98143.63
2022-10-10T03:44:23.566Z,98147.88
2022-10-10T03:46:51.772Z,98147.03
2022-10-10T03:49:19.959Z,98147.78
2022-10-10T03:51:48.255Z,98146.06
2022-10-10T03:54:16.545Z,98142.69
2022-10-10T03:56:46.891Z,98141.84
2022-10-10T03:59:15.086Z,98141.00
2022-10-10T04:01:43.448Z,98144.44
2022-10-10T04:04:11.628Z,98146.97
2022-10-10T04:06:39.957Z,98140.13
2022-10-10T04:09:08.383Z,98140.94
2022-10-10T04:11:39.264Z,98145.09
2022-10-10T04:14:09.661Z,98145.13
2022-10-10T04:16:37.922Z,98147.00
2022-10-10T04:19:06.166Z,98151.09
2022-10-10T04:21:34.398Z,98142.63
2022-10-10T04:24:02.819Z,98147.72
2022-10-10T04:26:31.255Z,98151.97
2022-10-10T04:29:00.076Z,98147.72
2022-10-10T04:31:29.669Z,98139.19
2022-10-10T04:33:57.903Z,98141.78
2022-10-10T04:36:26.401Z,98140.81
2022-10-10T04:38:54.591Z,98123.09
2022-10-10T04:41:22.785Z,98142.53
2022-10-10T04:43:51.389Z,98148.53
2022-10-10T04:46:19.685Z,98125.66
2022-10-10T04:48:49.249Z,98137.53
2022-10-10T04:51:17.649Z,98135.00
2022-10-10T04:53:50.292Z,98139.28
2022-10-10T04:56:19.152Z,98132.50
2022-10-10T04:58:47.267Z,98134.22
2022-10-10T05:01:15.630Z,98136.81
2022-10-10T05:03:44.002Z,98135.97
2022-10-10T05:06:13.895Z,98136.72
2022-10-10T05:08:42.371Z,98140.16
2022-10-10T05:11:10.669Z,98141.91
2022-10-10T05:13:39.139Z,98141.13
2022-10-10T05:16:07.978Z,98147.09
2022-10-10T05:18:37.459Z,98139.44
2022-10-10T05:21:07.223Z,98141.91
2022-10-10T05:23:38.837Z,98145.28
2022-10-10T05:26:07.233Z,98131.72
2022-10-10T05:28:36.667Z,98138.53
2022-10-10T05:31:05.664Z,98135.09
2022-10-10T05:33:34.564Z,98147.84
2022-10-10T05:36:05.156Z,98147.81
2022-10-10T05:38:33.640Z,98146.84
2022-10-10T05:41:03.557Z,98148.44
2022-10-10T05:43:32.767Z,98144.88
2022-10-10T05:46:01.197Z,98139.59
2022-10-10T05:48:30.247Z,98148.91
2022-10-10T05:50:59.678Z,98145.47
2022-10-10T05:53:28.889Z,98156.50
2022-10-10T05:55:57.659Z,98149.56
2022-10-10T05:58:28.328Z,98159.75
2022-10-10T06:00:56.950Z,98160.50
2022-10-10T06:03:25.231Z,98160.41
2022-10-10T06:05:53.720Z,98169.72
2022-10-10T06:08:22.062Z,98162.09
2022-10-10T06:10:50.508Z,98162.13
2022-10-10T06:13:24.311Z,98168.84
2022-10-10T06:15:55.086Z,98168.06
2022-10-10T06:18:23.683Z,98159.47
2022-10-10T06:20:53.053Z,98162.00
2022-10-10T06:23:21.410Z,98162.72
2022-10-10T06:25:53.098Z,98160.84
2022-10-10T06:28:21.614Z,98164.19
2022-10-10T06:30:50.857Z,98160.75
2022-10-10T06:33:20.812Z,98165.00
2022-10-10T06:35:50.252Z,98158.06
2022-10-10T06:38:18.902Z,98165.69
2022-10-10T06:40:48.409Z,98171.66
2022-10-10T06:43:17.943Z,98176.81
2022-10-10T06:45:47.729Z,98172.44
2022-10-10T06:48:16.841Z,98178.25
2022-10-10T06:50:57.401Z,98184.03
2022-10-10T06:53:26.321Z,98182.03
2022-10-10T06:55:55.226Z,98177.41
2022-10-10T06:58:23.475Z,98178.78
2022-10-10T07:00:53.494Z,98171.63
2022-10-10T07:03:22.388Z,98168.94
2022-10-10T07:05:53.532Z,98172.06
2022-10-10T07:08:22.304Z,98173.72
2022-10-10T07:10:51.296Z,98184.00
2022-10-10T07:13:20.665Z,98185.66
2022-10-10T07:15:48.884Z,98189.25
2022-10-10T07:18:18.856Z,98190.09
2022-10-10T07:20:47.136Z,98190.94
2022-10-10T07:23:17.425Z,98190.94
2022-10-10T07:25:46.159Z,98190.94
2022-10-10T07:28:14.419Z,98190.88
2022-10-10T07:30:44.114Z,98186.59
2022-10-10T07:33:12.714Z,98193.38
2022-10-10T07:35:41.018Z,98190.63
2022-10-10T07:38:09.780Z,98192.94
2022-10-10T07:40:41.232Z,98198.66
2022-10-10T07:43:09.552Z,98207.66
2022-10-10T07:45:38.602Z,98211.50
2022-10-10T07:48:07.018Z,98208.66
2022-10-10T07:50:35.285Z,98211.00
2022-10-10T07:53:03.564Z,98215.03
2022-10-10T07:55:31.833Z,98209.06
2022-10-10T07:58:03.839Z,98220.88
2022-10-10T08:00:33.554Z,98214.78
2022-10-10T08:03:02.142Z,98213.84
2022-10-10T08:05:30.422Z,98212.72
2022-10-10T08:07:58.855Z,98213.22
2022-10-10T08:10:28.821Z,98206.22
2022-10-10T08:12:57.104Z,98205.00
2022-10-10T08:15:27.920Z,98207.84
2022-10-10T08:18:11.896Z,98219.84
2022-10-10T08:20:40.191Z,98217.34
2022-10-10T08:23:08.405Z,98219.81
2022-10-10T08:25:36.892Z,98218.84
2022-10-10T08:28:05.504Z,98217.75
2022-10-10T08:30:35.108Z,98221.03
2022-10-10T08:33:03.507Z,98214.75
2022-10-10T08:35:31.596Z,98216.19
2022-10-10T08:37:59.950Z,98211.53
2022-10-10T08:40:28.960Z,98216.22
2022-10-10T08:43:02.532Z,98219.38
2022-10-10T08:45:31.717Z,98217.47
2022-10-10T08:48:04.009Z,98209.38
2022-10-10T08:50:37.722Z,98213.41
2022-10-10T08:53:15.859Z,98214.81
2022-10-10T08:55:46.363Z,98219.69
2022-10-10T08:58:21.002Z,98207.19
2022-10-10T09:00:53.060Z,98218.16
2022-10-10T09:03:30.637Z,98212.91
2022-10-10T09:06:18.416Z,98213.81
2022-10-10T09:08:56.289Z,98209.59
2022-10-10T09:11:38.806Z,98227.34
2022-10-10T09:14:18.854Z,98220.75
2022-10-10T09:16:54.962Z,98221.78
2022-10-10T09:19:37.933Z,98216.50
2022-10-10T09:22:13.661Z,98220.09
2022-10-10T09:24:46.881Z,98217.34
2022-10-10T09:27:21.616Z,98228.66
2022-10-10T09:29:56.027Z,98223.16
2022-10-10T09:32:28.050Z,98223.34
2022-10-10T09:35:05.632Z,98216.66
2022-10-10T09:37:53.713Z,98221.09
2022-10-10T09:40:28.594Z,98210.09
2022-10-10T09:42:57.545Z,98212.66
2022-10-10T09:45:30.376Z,98204.28
2022-10-10T09:47:58.607Z,98205.25
2022-10-10T09:50:28.590Z,98199.31
2022-10-10T09:52:58.615Z,98209.06
2022-10-10T09:55:30.182Z,98207.81
2022-10-10T09:58:03.858Z,98209.19
2022-10-10T10:00:36.797Z,98219.09
2022-10-10T10:03:16.407Z,98215.56
2022-10-10T10:05:54.319Z,98217.94
2022-10-10T10:08:34.264Z,98218.75
2022-10-10T10:11:03.449Z,98218.75
2022-10-10T10:13:33.983Z,98220.53
2022-10-10T10:16:08.286Z,98220.03
2022-10-10T10:18:42.927Z,98225.75
2022-10-10T10:21:17.234Z,98209.75
2022-10-10T10:23:52.063Z,98224.63
2022-10-10T10:26:23.850Z,98226.22
2022-10-10T10:28:53.882Z,98214.41
2022-10-10T10:31:42.556Z,98217.09
2022-10-10T10:34:27.876Z,98220.16
2022-10-10T10:37:05.277Z,98207.69
2022-10-10T10:39:44.906Z,98224.63
2022-10-10T10:42:26.697Z,98213.28
2022-10-10T10:45:06.347Z,98213.25
2022-10-10T10:47:45.474Z,98217.47
2022-10-10T10:50:28.398Z,98213.66
2022-10-10T10:53:05.471Z,98214.97
2022-10-10T10:55:41.275Z,98207.34
2022-10-10T11:01:54.735Z,98199.81
2022-10-10T11:05:20.939Z,98207.13
2022-10-10T11:07:47.804Z,98197.81
2022-10-10T11:10:28.671Z,98206.41
2022-10-10T11:13:08.134Z,98196.84
2022-10-10T11:18:33.923Z,98194.06
2022-10-10T11:21:06.338Z,98196.28
2022-10-10T11:23:41.490Z,98194.88
2022-10-10T11:26:19.476Z,98199.56
2022-10-10T11:28:52.509Z,98190.00
2022-10-10T11:31:24.737Z,98197.47
2022-10-10T11:33:57.970Z,98204.09
2022-10-10T11:36:31.442Z,98205.69
2022-10-10T11:39:06.527Z,98199.88
2022-10-10T11:41:40.739Z,98206.44
2022-10-10T11:44:13.471Z,98198.22
2022-10-10T11:46:44.917Z,98197.63
2022-10-10T11:49:21.094Z,98191.41
2022-10-10T11:52:32.450Z,98194.16
2022-10-10T11:55:07.952Z,98184.63
2022-10-10T11:57:42.830Z,98183.47
2022-10-10T12:00:14.908Z,98177.28
2022-10-10T12:02:45.078Z,98180.84
2022-10-10T12:05:25.313Z,98185.69
2022-10-10T12:08:10.836Z,98173.84
2022-10-10T12:10:47.727Z,98168.03
2022-10-10T12:13:29.774Z,98169.09
2022-10-10T12:16:04.470Z,98167.56
2022-10-10T12:18:41.389Z,98164.22
2022-10-10T12:21:12.550Z,98155.69
2022-10-10T12:23:43.104Z,98155.06
2022-10-10T12:26:17.741Z,98145.13
2022-10-10T12:29:05.792Z,98147.78
2022-10-10T12:31:38.964Z,98154.34
2022-10-10T12:34:37.981Z,98158.72
2022-10-10T12:37:22.489Z,98152.31
2022-10-10T12:40:28.928Z,98146.38
2022-10-10T12:43:24.100Z,98146.84
2022-10-10T12:46:16.214Z,98145.94
2022-10-10T12:48:45.476Z,98146.53
2022-10-10T12:51:23.216Z,98142.66
2022-10-10T12:53:56.054Z,98133.34
2022-10-10T12:56:35.888Z,98149.22
2022-10-10T12:59:04.877Z,98147.56
2022-10-10T13:01:45.835Z,98145.00
2022-10-10T13:04:18.042Z,98134.00
2022-10-10T13:06:49.316Z,98142.56
2022-10-10T13:09:21.901Z,98132.50
2022-10-10T13:11:59.256Z,98130.00
2022-10-10T13:14:39.091Z,98133.94
2022-10-10T13:17:24.053Z,98127.88
2022-10-10T13:19:52.852Z,98129.13
2022-10-10T13:22:22.141Z,98138.44
2022-10-10T13:24:52.156Z,98137.44
2022-10-10T13:27:22.964Z,98134.59
2022-10-10T13:29:52.299Z,98128.25
2022-10-10T13:32:25.448Z,98131.16
2022-10-10T13:34:55.874Z,98129.66
2022-10-10T13:37:25.287Z,98127.28
2022-10-10T13:39:55.001Z,98136.69
2022-10-10T13:42:34.163Z,98133.34
2022-10-10T13:45:05.339Z,98128.13
2022-10-10T13:47:51.397Z,98129.50
2022-10-10T13:50:23.732Z,98133.34
2022-10-10T13:52:52.728Z,98136.03
2022-10-10T13:55:26.492Z,98137.53
2022-10-10T13:58:00.828Z,98113.38
2022-10-10T14:00:32.822Z,98134.00
2022-10-10T14:03:03.070Z,98136.44
2022-10-10T14:05:33.470Z,98142.25
2022-10-10T14:08:01.747Z,98134.59
2022-10-10T14:10:36.135Z,98134.50
2022-10-10T14:13:04.505Z,98137.88
2022-10-10T14:15:36.855Z,98137.59
2022-10-10T14:18:16.434Z,98131.31
2022-10-10T14:20:45.513Z,98135.25
2022-10-10T14:23:14.107Z,98129.00
2022-10-10T14:25:44.438Z,98130.56
2022-10-10T14:28:17.898Z,98141.13
2022-10-10T14:30:47.065Z,98127.56
2022-10-10T14:33:19.462Z,98133.19
2022-10-10T14:35:49.377Z,98131.75
2022-10-10T14:38:18.129Z,98142.28
2022-10-10T14:40:49.572Z,98141.69
2022-10-10T14:43:20.615Z,98139.84
2022-10-10T14:45:51.260Z,98142.44
2022-10-10T14:48:21.268Z,98130.94
2022-10-10T14:50:51.252Z,98134.22
2022-10-10T14:53:19.639Z,98133.13
2022-10-10T14:55:50.406Z,98135.22
2022-10-10T14:58:23.505Z,98133.25
2022-10-10T15:00:53.072Z,98135.25
2022-10-10T15:03:23.356Z,98132.16
2022-10-10T15:05:51.897Z,98124.81
2022-10-10T15:08:20.405Z,98125.53
2022-10-10T15:10:49.004Z,98117.53
2022-10-10T15:13:18.073Z,98131.50
2022-10-10T15:15:48.652Z,98133.25
2022-10-10T15:18:49.240Z,98123.31
2022-10-10T15:21:11.692Z,98131.44
2022-10-10T15:23:40.255Z,98130.81
2022-10-10T15:26:09.388Z,98134.56
2022-10-10T15:28:38.369Z,98133.09
2022-10-10T15:31:07.213Z,98133.25
2022-10-10T15:33:35.451Z,98144.69
2022-10-10T15:36:10.899Z,98139.94
2022-10-10T15:38:42.217Z,98145.47
2022-10-10T15:41:11.362Z,98145.94
2022-10-10T15:43:45.626Z,98155.09
2022-10-10T15:46:14.377Z,98149.63
2022-10-10T15:48:42.845Z,98150.88
2022-10-10T15:51:11.187Z,98155.44
2022-10-10T15:53:39.567Z,98148.22
2022-10-10T15:56:10.874Z,98152.97
2022-10-10T15:58:40.138Z,98143.16
2022-10-10T16:01:14.840Z,98153.06
2022-10-10T16:03:43.862Z,98148.34
2022-10-10T16:06:12.781Z,98153.88
2022-10-10T16:08:41.482Z,98154.34
2022-10-10T16:11:13.045Z,98159.84
2022-10-10T16:13:43.239Z,98162.75
2022-10-10T16:16:20.732Z,98158.69
2022-10-10T16:18:50.888Z,98165.22
2022-10-10T16:21:22.242Z,98162.09
2022-10-10T16:23:55.655Z,98170.13
2022-10-10T16:26:29.501Z,98176.59
2022-10-10T16:28:59.777Z,98171.00
2022-10-10T16:31:32.666Z,98176.41
2022-10-10T16:34:01.236Z,98183.53
2022-10-10T16:36:31.564Z,98182.97
2022-10-10T16:39:00.672Z,98180.72
2022-10-10T16:41:49.687Z,98193.66
2022-10-10T16:44:18.818Z,98188.16
2022-10-10T16:46:48.747Z,98191.66
2022-10-10T16:49:17.396Z,98189.19
2022-10-10T16:51:49.093Z,98203.75
2022-10-10T16:54:17.549Z,98203.00
2022-10-10T16:56:47.503Z,98201.72
2022-10-10T16:59:19.535Z,98206.16
2022-10-10T17:01:48.261Z,98198.06
2022-10-10T17:04:16.428Z,98211.00
2022-10-10T17:06:45.040Z,98206.25
2022-10-10T17:09:13.505Z,98219.19
2022-10-10T17:11:41.680Z,98221.03
2022-10-10T17:14:12.364Z,98226.31
2022-10-10T17:19:29.036Z,98228.31
2022-10-10T17:21:57.562Z,98233.84
2022-10-10T17:24:25.602Z,98237.44
2022-10-10T17:26:53.914Z,98227.16
2022-10-10T17:29:23.872Z,98241.88
2022-10-10T17:31:52.667Z,98241.28
2022-10-10T17:34:21.517Z,98241.63
2022-10-10T17:36:50.105Z,98242.81
2022-10-10T17:39:18.308Z,98237.97
2022-10-10T17:41:49.295Z,98240.75
2022-10-10T17:44:17.902Z,98240.22
2022-10-10T17:46:47.815Z,98235.34
2022-10-10T17:49:16.143Z,98247.41
2022-10-10T17:51:44.385Z,98245.00
2022-10-10T17:54:13.610Z,98237.59
2022-10-10T17:56:44.767Z,98255.59
2022-10-10T17:59:13.481Z,98250.56
2022-10-10T18:01:41.863Z,98248.94
2022-10-10T18:04:15.627Z,98244.78
2022-10-10T18:06:43.708Z,98257.00
2022-10-10T18:09:12.361Z,98256.28
2022-10-10T18:11:40.597Z,98251.28
2022-10-10T18:14:08.827Z,98253.22
2022-10-10T18:16:38.227Z,98257.63
2022-10-10T18:19:09.826Z,98256.06
2022-10-10T18:21:39.881Z,98246.00
2022-10-10T18:24:08.821Z,98255.41
2022-10-10T18:26:37.324Z,98256.63
2022-10-10T18:29:05.710Z,98266.00
2022-10-10T18:31:36.335Z,98265.28
2022-10-10T18:34:05.601Z,98261.03
2022-10-10T18:36:36.417Z,98266.03
2022-10-10T18:39:10.331Z,98259.34
2022-10-10T18:41:38.680Z,98260.03
2022-10-10T18:44:08.876Z,98260.00
2022-10-10T18:46:37.972Z,98260.88
2022-10-10T18:49:09.317Z,98258.13
2022-10-10T18:51:40.138Z,98245.47
2022-10-10T18:54:11.537Z,98263.13
2022-10-10T18:56:41.428Z,98266.53
2022-10-10T18:59:13.834Z,98259.13
2022-10-10T19:01:45.979Z,98263.28
2022-10-10T19:04:16.274Z,98269.38
2022-10-10T19:06:45.569Z,98266.09
2022-10-10T19:09:18.517Z,98275.66
2022-10-10T19:11:50.158Z,98274.09
2022-10-10T19:14:19.796Z,98279.25
2022-10-10T19:16:49.142Z,98281.06
2022-10-10T19:19:19.705Z,98281.22
2022-10-10T19:21:49.006Z,98282.06
2022-10-10T19:24:21.641Z,98291.63
2022-10-10T19:26:57.093Z,98290.03
2022-10-10T19:29:27.089Z,98296.09
2022-10-10T19:31:56.110Z,98294.41
2022-10-10T19:34:24.971Z,98296.34
2022-10-10T19:36:53.843Z,98305.03
2022-10-10T19:39:23.978Z,98299.19
2022-10-10T19:41:52.863Z,98305.34
2022-10-10T19:44:21.608Z,98313.22
2022-10-10T19:46:50.097Z,98300.38
2022-10-10T19:49:18.584Z,98317.72
2022-10-10T19:51:46.906Z,98303.66
2022-10-10T19:54:15.289Z,98318.16
2022-10-10T19:56:45.025Z,98316.47
2022-10-10T19:59:13.399Z,98314.88
2022-10-10T20:01:41.855Z,98321.84
2022-10-10T20:04:10.109Z,98319.28
2022-10-10T20:06:41.258Z,98320.41
2022-10-10T20:09:10.986Z,98320.59
2022-10-10T20:11:43.395Z,98307.06
2022-10-10T20:14:14.135Z,98323.22
2022-10-10T20:16:42.722Z,98315.59
2022-10-10T20:19:11.116Z,98319.84
2022-10-10T20:21:40.769Z,98323.22
2022-10-10T20:24:12.282Z,98317.19
2022-10-10T20:26:40.776Z,98313.84
2022-10-10T20:29:09.652Z,98318.25
2022-10-10T20:31:39.871Z,98320.00
2022-10-10T20:34:08.829Z,98313.97
2022-10-10T20:36:39.413Z,98328.78
2022-10-10T20:39:10.662Z,98326.41
2022-10-10T20:41:40.836Z,98332.44
2022-10-10T20:44:11.938Z,98340.25
2022-10-10T20:46:43.281Z,98335.22
2022-10-10T20:49:14.376Z,98335.22
2022-10-10T20:51:48.150Z,98339.59
2022-10-10T20:54:17.829Z,98347.88
2022-10-10T20:56:46.133Z,98346.97
2022-10-10T20:59:15.309Z,98344.44
2022-10-10T21:01:45.967Z,98357.38
2022-10-10T21:04:15.267Z,98356.53
2022-10-10T21:06:44.285Z,98362.44
2022-10-10T21:09:14.703Z,98351.31
2022-10-10T21:11:46.463Z,98357.28
2022-10-10T21:14:16.784Z,98361.59
2022-10-10T21:16:46.806Z,98369.31
2022-10-10T21:19:15.705Z,98367.63
2022-10-10T21:21:44.949Z,98364.44
2022-10-10T21:24:14.207Z,98376.16
2022-10-10T21:26:43.815Z,98372.72
2022-10-10T21:29:12.118Z,98355.59
2022-10-10T21:31:42.373Z,98373.34
2022-10-10T21:34:16.074Z,98369.03
2022-10-10T21:36:47.614Z,98367.38
2022-10-10T21:39:16.352Z,98370.91
2022-10-10T21:41:44.964Z,98375.19
2022-10-10T21:44:13.500Z,98363.34
2022-10-10T21:46:42.104Z,98377.03
2022-10-10T21:49:13.373Z,98382.25
2022-10-10T21:51:45.667Z,98388.19
2022-10-10T21:54:14.620Z,98399.28
2022-10-10T21:56:42.943Z,98406.94
2022-10-10T21:59:12.159Z,98421.25
2022-10-10T22:01:40.660Z,98444.16
2022-10-10T22:04:09.015Z,98438.78
2022-10-10T22:06:38.791Z,98448.63
2022-10-10T22:09:07.118Z,98442.25
2022-10-10T22:11:36.013Z,98441.88
2022-10-10T22:14:05.049Z,98439.00
2022-10-10T22:16:34.463Z,98437.94
2022-10-10T22:19:03.462Z,98437.69
2022-10-10T22:21:34.745Z,98446.97
2022-10-10T22:24:07.137Z,98446.91
2022-10-10T22:26:35.742Z,98446.13
2022-10-10T22:29:04.506Z,98447.88
2022-10-10T22:31:35.693Z,98446.13
2022-10-10T22:34:04.119Z,98439.25
2022-10-10T22:36:32.312Z,98445.34
2022-10-10T22:39:00.710Z,98447.88
2022-10-10T22:41:30.381Z,98455.47
2022-10-10T22:43:59.085Z,98450.13
2022-10-10T22:46:27.301Z,98449.97
2022-10-10T22:48:55.502Z,98445.34
2022-10-10T22:51:23.705Z,98448.78
2022-10-10T22:53:52.038Z,98447.78
2022-10-10T22:56:22.759Z,98441.59
2022-10-10T22:58:52.951Z,98449.25
2022-10-10T23:01:23.015Z,98452.69
2022-10-10T23:03:51.857Z,98444.84
2022-10-10T23:06:20.118Z,98453.53
2022-10-10T23:08:48.323Z,98444.84
2022-10-10T23:11:16.791Z,98452.53
2022-10-10T23:13:45.263Z,98449.16
2022-10-10T23:16:15.495Z,98460.34
2022-10-10T23:18:43.769Z,98464.78
2022-10-10T23:21:11.944Z,98461.34
2022-10-10T23:23:40.745Z,98456.28
2022-10-10T23:26:10.754Z,98459.59
2022-10-10T23:28:40.306Z,98467.41
2022-10-10T23:31:10.458Z,98461.25
2022-10-10T23:33:40.313Z,98474.16
2022-10-10T23:36:12.281Z,98472.38
2022-10-10T23:38:40.969Z,98458.72
2022-10-10T23:41:09.517Z,98462.16
2022-10-10T23:43:38.415Z,98460.53
2022-10-10T23:46:07.269Z,98463.88
2022-10-10T23:48:36.992Z,98470.69
2022-10-10T23:51:07.481Z,98474.09
2022-10-10T23:53:36.076Z,98468.94
2022-10-10T23:56:04.539Z,98461.19
2022-10-10T23:58:34.289Z,98460.44
